sensor_id;sensor_type;location;lat;lon;timestamp;temperature;humidity
65692;DHT22;52411;52.716;6.696;2023-04-01T00:00:16;10.50;99.90
65692;DHT22;52411;52.716;6.696;2023-04-01T00:02:42;10.50;99.90
65692;DHT22;52411;52.716;6.696;2023-04-01T00:05:08;10.50;99.90
65692;DHT22;52411;52.716;6.696;2023-04-01T00:07:36;10.50;99.90
65692;DHT22;52411;52.716;6.696;2023-04-01T00:10:03;10.50;99.90
65692;DHT22;52411;52.716;6.696;2023-04-01T00:12:29;10.50;99.90
65692;DHT22;52411;52.716;6.696;2023-04-01T00:14:54;10.40;99.90
65692;DHT22;52411;52.716;6.696;2023-04-01T00:17:20;10.40;99.90
65692;DHT22;52411;52.716;6.696;2023-04-01T00:19:46;10.40;99.90
65692;DHT22;52411;52.716;6.696;2023-04-01T00:22:12;10.40;99.90
65692;DHT22;52411;52.716;6.696;2023-04-01T00:24:38;10.40;99.90
65692;DHT22;52411;52.716;6.696;2023-04-01T00:27:04;10.40;99.90
65692;DHT22;52411;52.716;6.696;2023-04-01T00:29:30;10.30;99.90
65692;DHT22;52411;52.716;6.696;2023-04-01T00:31:59;10.40;99.90
65692;DHT22;52411;52.716;6.696;2023-04-01T00:34:24;10.30;99.90
65692;DHT22;52411;52.716;6.696;2023-04-01T00:36:51;10.30;99.90
65692;DHT22;52411;52.716;6.696;2023-04-01T00:39:18;10.30;99.90
65692;DHT22;52411;52.716;6.696;2023-04-01T00:41:44;10.30;99.90
65692;DHT22;52411;52.716;6.696;2023-04-01T00:44:22;10.30;99.90
65692;DHT22;52411;52.716;6.696;2023-04-01T00:46:49;10.30;99.90
65692;DHT22;52411;52.716;6.696;2023-04-01T00:49:16;10.30;99.90
65692;DHT22;52411;52.716;6.696;2023-04-01T00:51:43;10.30;99.90
65692;DHT22;52411;52.716;6.696;2023-04-01T00:54:12;10.30;99.90
65692;DHT22;52411;52.716;6.696;2023-04-01T00:56:46;10.30;99.90
65692;DHT22;52411;52.716;6.696;2023-04-01T00:59:18;10.30;99.90
65692;DHT22;52411;52.716;6.696;2023-04-01T01:01:45;10.30;99.90
65692;DHT22;52411;52.716;6.696;2023-04-01T01:04:33;10.30;99.90
65692;DHT22;52411;52.716;6.696;2023-04-01T01:12:36;10.30;99.90
65692;DHT22;52411;52.716;6.696;2023-04-01T01:26:31;10.30;99.90
65692;DHT22;52411;52.716;6.696;2023-04-01T01:32:26;10.30;99.90
65692;DHT22;52411;52.716;6.696;2023-04-01T01:34:54;10.30;99.90
65692;DHT22;52411;52.716;6.696;2023-04-01T01:37:23;10.20;99.90
65692;DHT22;52411;52.716;6.696;2023-04-01T01:39:58;10.20;99.90
65692;DHT22;52411;52.716;6.696;2023-04-01T01:42:26;10.20;99.90
65692;DHT22;52411;52.716;6.696;2023-04-01T01:44:53;10.20;99.90
65692;DHT22;52411;52.716;6.696;2023-04-01T01:47:22;10.20;99.90
65692;DHT22;52411;52.716;6.696;2023-04-01T01:49:49;10.20;99.90
65692;DHT22;52411;52.716;6.696;2023-04-01T01:52:17;10.20;99.90
65692;DHT22;52411;52.716;6.696;2023-04-01T01:54:54;10.30;99.90
65692;DHT22;52411;52.716;6.696;2023-04-01T01:57:28;10.20;99.90
65692;DHT22;52411;52.716;6.696;2023-04-01T01:59:58;10.20;99.90
65692;DHT22;52411;52.716;6.696;2023-04-01T02:02:26;10.20;99.90
65692;DHT22;52411;52.716;6.696;2023-04-01T02:04:52;10.20;99.90
65692;DHT22;52411;52.716;6.696;2023-04-01T02:07:26;10.20;99.90
65692;DHT22;52411;52.716;6.696;2023-04-01T02:09:53;10.20;99.90
65692;DHT22;52411;52.716;6.696;2023-04-01T02:12:19;10.20;99.90
65692;DHT22;52411;52.716;6.696;2023-04-01T02:14:54;10.20;99.90
65692;DHT22;52411;52.716;6.696;2023-04-01T02:17:24;10.20;99.90
65692;DHT22;52411;52.716;6.696;2023-04-01T02:19:56;10.20;99.90
65692;DHT22;52411;52.716;6.696;2023-04-01T02:22:32;10.20;99.90
65692;DHT22;52411;52.716;6.696;2023-04-01T02:25:05;10.20;99.90
65692;DHT22;52411;52.716;6.696;2023-04-01T02:27:31;10.20;99.90
65692;DHT22;52411;52.716;6.696;2023-04-01T02:29:57;10.20;99.90
65692;DHT22;52411;52.716;6.696;2023-04-01T02:32:23;10.30;99.90
65692;DHT22;52411;52.716;6.696;2023-04-01T02:34:50;10.30;99.90
65692;DHT22;52411;52.716;6.696;2023-04-01T02:37:16;10.20;99.90
65692;DHT22;52411;52.716;6.696;2023-04-01T02:39:42;10.20;99.90
65692;DHT22;52411;52.716;6.696;2023-04-01T02:42:08;10.20;99.90
65692;DHT22;52411;52.716;6.696;2023-04-01T02:44:34;10.20;99.90
65692;DHT22;52411;52.716;6.696;2023-04-01T02:47:00;10.20;99.90
65692;DHT22;52411;52.716;6.696;2023-04-01T02:49:26;10.20;99.90
65692;DHT22;52411;52.716;6.696;2023-04-01T02:51:51;10.20;99.90
65692;DHT22;52411;52.716;6.696;2023-04-01T02:54:17;10.20;99.90
65692;DHT22;52411;52.716;6.696;2023-04-01T02:56:43;10.20;99.90
65692;DHT22;52411;52.716;6.696;2023-04-01T02:59:09;10.20;99.90
65692;DHT22;52411;52.716;6.696;2023-04-01T03:01:34;10.20;99.90
65692;DHT22;52411;52.716;6.696;2023-04-01T03:04:00;10.30;99.90
65692;DHT22;52411;52.716;6.696;2023-04-01T03:06:26;10.30;99.90
65692;DHT22;52411;52.716;6.696;2023-04-01T03:08:51;10.30;99.90
65692;DHT22;52411;52.716;6.696;2023-04-01T03:11:17;10.30;99.90
65692;DHT22;52411;52.716;6.696;2023-04-01T03:13:42;10.30;99.90
65692;DHT22;52411;52.716;6.696;2023-04-01T03:16:08;10.30;99.90
65692;DHT22;52411;52.716;6.696;2023-04-01T03:18:34;10.30;99.90
65692;DHT22;52411;52.716;6.696;2023-04-01T03:21:22;10.30;99.90
65692;DHT22;52411;52.716;6.696;2023-04-01T03:23:48;10.30;99.90
65692;DHT22;52411;52.716;6.696;2023-04-01T03:26:14;10.30;99.90
65692;DHT22;52411;52.716;6.696;2023-04-01T03:28:39;10.30;99.90
65692;DHT22;52411;52.716;6.696;2023-04-01T03:31:05;10.30;99.90
65692;DHT22;52411;52.716;6.696;2023-04-01T03:33:31;10.30;99.90
65692;DHT22;52411;52.716;6.696;2023-04-01T03:35:57;10.30;99.90
65692;DHT22;52411;52.716;6.696;2023-04-01T03:38:23;10.30;99.90
65692;DHT22;52411;52.716;6.696;2023-04-01T03:40:48;10.30;99.90
65692;DHT22;52411;52.716;6.696;2023-04-01T03:43:14;10.30;99.90
65692;DHT22;52411;52.716;6.696;2023-04-01T03:45:49;10.30;99.90
65692;DHT22;52411;52.716;6.696;2023-04-01T03:48:15;10.30;99.90
65692;DHT22;52411;52.716;6.696;2023-04-01T03:50:41;10.40;99.90
65692;DHT22;52411;52.716;6.696;2023-04-01T03:53:07;10.30;99.90
65692;DHT22;52411;52.716;6.696;2023-04-01T03:55:32;10.40;99.90
65692;DHT22;52411;52.716;6.696;2023-04-01T03:57:59;10.40;99.90
65692;DHT22;52411;52.716;6.696;2023-04-01T04:00:24;10.30;99.90
65692;DHT22;52411;52.716;6.696;2023-04-01T04:02:50;10.30;99.90
65692;DHT22;52411;52.716;6.696;2023-04-01T04:05:16;10.30;99.90
65692;DHT22;52411;52.716;6.696;2023-04-01T04:07:41;10.40;99.90
65692;DHT22;52411;52.716;6.696;2023-04-01T04:10:07;10.30;99.90
65692;DHT22;52411;52.716;6.696;2023-04-01T04:12:33;10.30;99.90
65692;DHT22;52411;52.716;6.696;2023-04-01T04:14:58;10.30;99.90
65692;DHT22;52411;52.716;6.696;2023-04-01T04:17:24;10.30;99.90
65692;DHT22;52411;52.716;6.696;2023-04-01T04:19:50;10.30;99.90
65692;DHT22;52411;52.716;6.696;2023-04-01T04:22:15;10.30;99.90
65692;DHT22;52411;52.716;6.696;2023-04-01T04:24:41;10.30;99.90
65692;DHT22;52411;52.716;6.696;2023-04-01T04:27:07;10.40;99.90
65692;DHT22;52411;52.716;6.696;2023-04-01T04:29:32;10.30;99.90
65692;DHT22;52411;52.716;6.696;2023-04-01T04:31:58;10.40;99.90
65692;DHT22;52411;52.716;6.696;2023-04-01T04:34:23;10.40;99.90
65692;DHT22;52411;52.716;6.696;2023-04-01T04:36:49;10.30;99.90
65692;DHT22;52411;52.716;6.696;2023-04-01T04:39:15;10.40;99.90
65692;DHT22;52411;52.716;6.696;2023-04-01T04:41:41;10.40;99.90
65692;DHT22;52411;52.716;6.696;2023-04-01T04:44:06;10.40;99.90
65692;DHT22;52411;52.716;6.696;2023-04-01T04:46:32;10.40;99.90
65692;DHT22;52411;52.716;6.696;2023-04-01T04:48:58;10.40;99.90
65692;DHT22;52411;52.716;6.696;2023-04-01T04:51:23;10.40;99.90
65692;DHT22;52411;52.716;6.696;2023-04-01T04:53:49;10.40;99.90
65692;DHT22;52411;52.716;6.696;2023-04-01T04:56:19;10.40;99.90
65692;DHT22;52411;52.716;6.696;2023-04-01T04:58:45;10.40;99.90
65692;DHT22;52411;52.716;6.696;2023-04-01T05:01:13;10.40;99.90
65692;DHT22;52411;52.716;6.696;2023-04-01T05:03:39;10.40;99.90
65692;DHT22;52411;52.716;6.696;2023-04-01T05:06:06;10.40;99.90
65692;DHT22;52411;52.716;6.696;2023-04-01T05:08:32;10.40;99.90
65692;DHT22;52411;52.716;6.696;2023-04-01T05:10:59;10.40;99.90
65692;DHT22;52411;52.716;6.696;2023-04-01T05:13:25;10.50;99.90
65692;DHT22;52411;52.716;6.696;2023-04-01T05:15:50;10.40;99.90
65692;DHT22;52411;52.716;6.696;2023-04-01T05:18:16;10.50;99.90
65692;DHT22;52411;52.716;6.696;2023-04-01T05:20:52;10.50;99.90
65692;DHT22;52411;52.716;6.696;2023-04-01T05:23:19;10.40;99.90
65692;DHT22;52411;52.716;6.696;2023-04-01T05:25:49;10.50;99.90
65692;DHT22;52411;52.716;6.696;2023-04-01T05:28:16;10.50;99.90
65692;DHT22;52411;52.716;6.696;2023-04-01T05:30:43;10.50;99.90
65692;DHT22;52411;52.716;6.696;2023-04-01T05:33:10;10.50;99.90
65692;DHT22;52411;52.716;6.696;2023-04-01T05:35:36;10.50;99.90
65692;DHT22;52411;52.716;6.696;2023-04-01T05:38:02;10.50;99.90
65692;DHT22;52411;52.716;6.696;2023-04-01T05:40:28;10.50;99.90
65692;DHT22;52411;52.716;6.696;2023-04-01T05:42:54;10.50;99.90
65692;DHT22;52411;52.716;6.696;2023-04-01T05:45:20;10.50;99.90
65692;DHT22;52411;52.716;6.696;2023-04-01T05:47:45;10.50;99.90
65692;DHT22;52411;52.716;6.696;2023-04-01T05:50:11;10.50;99.90
65692;DHT22;52411;52.716;6.696;2023-04-01T05:52:37;10.50;99.90
65692;DHT22;52411;52.716;6.696;2023-04-01T05:55:03;10.50;99.90
65692;DHT22;52411;52.716;6.696;2023-04-01T05:57:30;10.50;99.90
65692;DHT22;52411;52.716;6.696;2023-04-01T05:59:55;10.50;99.90
65692;DHT22;52411;52.716;6.696;2023-04-01T06:02:21;10.60;99.90
65692;DHT22;52411;52.716;6.696;2023-04-01T06:04:47;10.50;99.90
65692;DHT22;52411;52.716;6.696;2023-04-01T06:07:17;10.60;99.90
65692;DHT22;52411;52.716;6.696;2023-04-01T06:09:44;10.50;99.90
65692;DHT22;52411;52.716;6.696;2023-04-01T06:12:34;10.60;99.90
65692;DHT22;52411;52.716;6.696;2023-04-01T06:31:35;10.70;99.90
65692;DHT22;52411;52.716;6.696;2023-04-01T06:39:42;10.80;99.90
65692;DHT22;52411;52.716;6.696;2023-04-01T06:42:23;10.70;99.90
65692;DHT22;52411;52.716;6.696;2023-04-01T06:47:36;10.80;99.90
65692;DHT22;52411;52.716;6.696;2023-04-01T06:50:43;10.80;99.90
65692;DHT22;52411;52.716;6.696;2023-04-01T06:56:05;10.80;99.90
65692;DHT22;52411;52.716;6.696;2023-04-01T06:58:44;10.80;99.90
65692;DHT22;52411;52.716;6.696;2023-04-01T07:01:18;10.80;99.90
65692;DHT22;52411;52.716;6.696;2023-04-01T07:03:59;10.80;99.90
65692;DHT22;52411;52.716;6.696;2023-04-01T07:06:48;10.80;99.90
65692;DHT22;52411;52.716;6.696;2023-04-01T07:09:30;10.80;99.90
65692;DHT22;52411;52.716;6.696;2023-04-01T07:12:06;10.90;99.90
65692;DHT22;52411;52.716;6.696;2023-04-01T07:14:38;10.80;99.90
65692;DHT22;52411;52.716;6.696;2023-04-01T07:17:32;10.80;99.90
65692;DHT22;52411;52.716;6.696;2023-04-01T07:20:13;10.90;99.90
65692;DHT22;52411;52.716;6.696;2023-04-01T07:25:20;10.90;99.90
65692;DHT22;52411;52.716;6.696;2023-04-01T07:27:46;10.90;99.90
65692;DHT22;52411;52.716;6.696;2023-04-01T07:33:19;11.00;99.90
65692;DHT22;52411;52.716;6.696;2023-04-01T07:35:56;11.00;99.90
65692;DHT22;52411;52.716;6.696;2023-04-01T07:53:12;11.20;99.90
65692;DHT22;52411;52.716;6.696;2023-04-01T07:55:57;11.20;99.90
65692;DHT22;52411;52.716;6.696;2023-04-01T07:58:55;11.30;99.90
65692;DHT22;52411;52.716;6.696;2023-04-01T08:05:55;11.30;99.90
65692;DHT22;52411;52.716;6.696;2023-04-01T08:13:40;11.30;99.90
65692;DHT22;52411;52.716;6.696;2023-04-01T08:18:53;11.40;99.90
65692;DHT22;52411;52.716;6.696;2023-04-01T08:21:40;11.40;99.90
65692;DHT22;52411;52.716;6.696;2023-04-01T08:26:55;11.40;99.90
65692;DHT22;52411;52.716;6.696;2023-04-01T08:29:33;11.50;99.90
65692;DHT22;52411;52.716;6.696;2023-04-01T08:32:08;11.70;99.90
65692;DHT22;52411;52.716;6.696;2023-04-01T08:34:42;11.70;99.90
65692;DHT22;52411;52.716;6.696;2023-04-01T08:37:15;11.70;99.90
65692;DHT22;52411;52.716;6.696;2023-04-01T08:43:06;11.70;99.90
65692;DHT22;52411;52.716;6.696;2023-04-01T08:45:53;11.70;99.90
65692;DHT22;52411;52.716;6.696;2023-04-01T09:05:35;12.10;99.90
65692;DHT22;52411;52.716;6.696;2023-04-01T09:28:53;12.80;99.90
65692;DHT22;52411;52.716;6.696;2023-04-01T09:34:07;12.50;99.90
65692;DHT22;52411;52.716;6.696;2023-04-01T09:39:34;12.40;99.90
65692;DHT22;52411;52.716;6.696;2023-04-01T09:56:18;12.40;99.90
65692;DHT22;52411;52.716;6.696;2023-04-01T09:59:27;12.40;99.90
65692;DHT22;52411;52.716;6.696;2023-04-01T10:05:11;12.30;99.90
65692;DHT22;52411;52.716;6.696;2023-04-01T10:08:10;12.30;99.90
65692;DHT22;52411;52.716;6.696;2023-04-01T10:13:42;12.30;99.90
65692;DHT22;52411;52.716;6.696;2023-04-01T10:17:09;12.40;99.90
65692;DHT22;52411;52.716;6.696;2023-04-01T10:30:52;12.80;99.90
65692;DHT22;52411;52.716;6.696;2023-04-01T10:33:49;12.80;99.90
65692;DHT22;52411;52.716;6.696;2023-04-01T10:36:59;12.90;99.90
65692;DHT22;52411;52.716;6.696;2023-04-01T10:39:51;13.10;99.90
65692;DHT22;52411;52.716;6.696;2023-04-01T10:51:18;13.10;99.90
65692;DHT22;52411;52.716;6.696;2023-04-01T10:59:53;13.00;99.90
65692;DHT22;52411;52.716;6.696;2023-04-01T11:05:40;13.10;99.90
65692;DHT22;52411;52.716;6.696;2023-04-01T11:11:42;13.20;99.90
65692;DHT22;52411;52.716;6.696;2023-04-01T11:14:24;13.40;99.90
65692;DHT22;52411;52.716;6.696;2023-04-01T11:17:22;13.40;99.90
65692;DHT22;52411;52.716;6.696;2023-04-01T11:37:19;13.70;99.90
65692;DHT22;52411;52.716;6.696;2023-04-01T11:45:51;13.90;99.90
65692;DHT22;52411;52.716;6.696;2023-04-01T11:51:39;13.80;99.90
65692;DHT22;52411;52.716;6.696;2023-04-01T11:54:39;13.30;99.90
65692;DHT22;52411;52.716;6.696;2023-04-01T12:03:29;12.60;99.90
65692;DHT22;52411;52.716;6.696;2023-04-01T12:09:04;12.20;99.90
65692;DHT22;52411;52.716;6.696;2023-04-01T12:14:54;12.00;99.90
65692;DHT22;52411;52.716;6.696;2023-04-01T12:20:22;11.90;99.90
65692;DHT22;52411;52.716;6.696;2023-04-01T12:23:03;11.90;99.90
65692;DHT22;52411;52.716;6.696;2023-04-01T12:29:07;11.80;99.90
65692;DHT22;52411;52.716;6.696;2023-04-01T12:34:58;11.60;99.90
65692;DHT22;52411;52.716;6.696;2023-04-01T12:43:17;11.50;99.90
65692;DHT22;52411;52.716;6.696;2023-04-01T12:57:45;11.50;99.90
65692;DHT22;52411;52.716;6.696;2023-04-01T13:00:39;11.50;99.90
65692;DHT22;52411;52.716;6.696;2023-04-01T13:11:45;11.50;99.90
65692;DHT22;52411;52.716;6.696;2023-04-01T13:17:19;11.40;99.90
65692;DHT22;52411;52.716;6.696;2023-04-01T13:22:45;11.50;99.90
65692;DHT22;52411;52.716;6.696;2023-04-01T13:28:15;11.50;99.90
65692;DHT22;52411;52.716;6.696;2023-04-01T13:33:27;11.30;99.90
65692;DHT22;52411;52.716;6.696;2023-04-01T13:36:20;11.20;99.90
65692;DHT22;52411;52.716;6.696;2023-04-01T13:39:03;11.20;99.90
65692;DHT22;52411;52.716;6.696;2023-04-01T13:44:29;11.00;99.90
65692;DHT22;52411;52.716;6.696;2023-04-01T14:00:42;10.70;99.90
65692;DHT22;52411;52.716;6.696;2023-04-01T14:06:25;10.70;99.90
65692;DHT22;52411;52.716;6.696;2023-04-01T14:11:37;10.70;99.90
65692;DHT22;52411;52.716;6.696;2023-04-01T14:14:39;10.70;99.90
65692;DHT22;52411;52.716;6.696;2023-04-01T14:23:35;10.80;99.90
65692;DHT22;52411;52.716;6.696;2023-04-01T14:28:57;10.70;99.90
65692;DHT22;52411;52.716;6.696;2023-04-01T14:37:32;10.70;99.90
65692;DHT22;52411;52.716;6.696;2023-04-01T14:40:26;10.70;99.90
65692;DHT22;52411;52.716;6.696;2023-04-01T14:42:58;10.70;99.90
65692;DHT22;52411;52.716;6.696;2023-04-01T14:45:44;10.60;99.90
65692;DHT22;52411;52.716;6.696;2023-04-01T14:48:33;10.60;99.90
65692;DHT22;52411;52.716;6.696;2023-04-01T14:53:44;10.80;99.90
65692;DHT22;52411;52.716;6.696;2023-04-01T14:56:38;10.80;99.90
65692;DHT22;52411;52.716;6.696;2023-04-01T14:59:25;10.80;99.90
65692;DHT22;52411;52.716;6.696;2023-04-01T15:08:00;11.00;99.90
65692;DHT22;52411;52.716;6.696;2023-04-01T15:18:44;10.60;99.90
65692;DHT22;52411;52.716;6.696;2023-04-01T15:24:26;10.50;99.90
65692;DHT22;52411;52.716;6.696;2023-04-01T15:32:26;10.40;99.90
65692;DHT22;52411;52.716;6.696;2023-04-01T15:37:51;10.50;99.90
65692;DHT22;52411;52.716;6.696;2023-04-01T15:43:33;10.40;99.90
65692;DHT22;52411;52.716;6.696;2023-04-01T15:46:24;10.30;99.90
65692;DHT22;52411;52.716;6.696;2023-04-01T15:52:11;10.20;99.90
65692;DHT22;52411;52.716;6.696;2023-04-01T15:55:01;10.10;99.90
65692;DHT22;52411;52.716;6.696;2023-04-01T16:05:51;10.00;99.90
65692;DHT22;52411;52.716;6.696;2023-04-01T16:08:50;9.90;99.90
65692;DHT22;52411;52.716;6.696;2023-04-01T16:11:48;9.90;99.90
65692;DHT22;52411;52.716;6.696;2023-04-01T16:14:20;9.90;99.90
65692;DHT22;52411;52.716;6.696;2023-04-01T16:17:17;10.00;99.90
65692;DHT22;52411;52.716;6.696;2023-04-01T16:22:39;9.90;99.90
65692;DHT22;52411;52.716;6.696;2023-04-01T16:25:36;9.90;99.90
65692;DHT22;52411;52.716;6.696;2023-04-01T16:28:24;9.70;99.90
65692;DHT22;52411;52.716;6.696;2023-04-01T16:31:32;9.70;99.90
65692;DHT22;52411;52.716;6.696;2023-04-01T16:34:19;9.60;99.90
65692;DHT22;52411;52.716;6.696;2023-04-01T16:36:54;9.50;99.90
65692;DHT22;52411;52.716;6.696;2023-04-01T16:39:44;9.50;99.90
65692;DHT22;52411;52.716;6.696;2023-04-01T16:48:49;9.40;99.90
65692;DHT22;52411;52.716;6.696;2023-04-01T16:51:04;9.40;99.90
65692;DHT22;52411;52.716;6.696;2023-04-01T16:53:41;9.50;99.90
65692;DHT22;52411;52.716;6.696;2023-04-01T16:56:23;9.50;99.90
65692;DHT22;52411;52.716;6.696;2023-04-01T17:01:53;9.40;99.90
65692;DHT22;52411;52.716;6.696;2023-04-01T17:10:22;9.20;99.90
65692;DHT22;52411;52.716;6.696;2023-04-01T17:13:26;9.10;99.90
65692;DHT22;52411;52.716;6.696;2023-04-01T17:30:21;8.70;99.90
65692;DHT22;52411;52.716;6.696;2023-04-01T17:35:37;8.70;99.90
65692;DHT22;52411;52.716;6.696;2023-04-01T17:47:04;8.60;99.90
65692;DHT22;52411;52.716;6.696;2023-04-01T17:49:41;8.60;99.90
65692;DHT22;52411;52.716;6.696;2023-04-01T17:55:15;8.50;99.90
65692;DHT22;52411;52.716;6.696;2023-04-01T17:58:01;8.50;99.90
65692;DHT22;52411;52.716;6.696;2023-04-01T18:00:56;8.50;99.90
65692;DHT22;52411;52.716;6.696;2023-04-01T18:09:22;8.50;99.90
65692;DHT22;52411;52.716;6.696;2023-04-01T18:12:20;8.50;99.90
65692;DHT22;52411;52.716;6.696;2023-04-01T18:20:47;8.30;99.90
65692;DHT22;52411;52.716;6.696;2023-04-01T18:26:34;8.20;99.90
65692;DHT22;52411;52.716;6.696;2023-04-01T18:31:48;8.20;99.90
65692;DHT22;52411;52.716;6.696;2023-04-01T18:37:27;8.10;99.90
65692;DHT22;52411;52.716;6.696;2023-04-01T18:40:19;8.10;99.90
65692;DHT22;52411;52.716;6.696;2023-04-01T18:46:00;8.10;99.90
65692;DHT22;52411;52.716;6.696;2023-04-01T18:51:21;8.00;99.90
65692;DHT22;52411;52.716;6.696;2023-04-01T18:53:58;8.00;99.90
65692;DHT22;52411;52.716;6.696;2023-04-01T18:56:35;8.00;99.90
65692;DHT22;52411;52.716;6.696;2023-04-01T19:05:16;7.90;99.90
65692;DHT22;52411;52.716;6.696;2023-04-01T19:13:44;7.80;99.90
65692;DHT22;52411;52.716;6.696;2023-04-01T19:15:57;7.80;99.90
65692;DHT22;52411;52.716;6.696;2023-04-01T19:19:08;7.80;99.90
65692;DHT22;52411;52.716;6.696;2023-04-01T19:35:40;7.60;99.90
65692;DHT22;52411;52.716;6.696;2023-04-01T19:38:30;7.50;99.90
65692;DHT22;52411;52.716;6.696;2023-04-01T19:41:27;7.50;99.90
65692;DHT22;52411;52.716;6.696;2023-04-01T19:44:36;7.50;99.90
65692;DHT22;52411;52.716;6.696;2023-04-01T19:47:23;7.50;99.90
65692;DHT22;52411;52.716;6.696;2023-04-01T19:50:14;7.50;99.90
65692;DHT22;52411;52.716;6.696;2023-04-01T19:52:42;7.50;99.90
65692;DHT22;52411;52.716;6.696;2023-04-01T19:55:35;7.40;99.90
65692;DHT22;52411;52.716;6.696;2023-04-01T20:00:54;7.40;99.90
65692;DHT22;52411;52.716;6.696;2023-04-01T20:11:18;7.40;99.90
65692;DHT22;52411;52.716;6.696;2023-04-01T20:16:16;7.30;99.90
65692;DHT22;52411;52.716;6.696;2023-04-01T20:18:55;7.30;99.90
65692;DHT22;52411;52.716;6.696;2023-04-01T20:21:45;7.40;99.90
65692;DHT22;52411;52.716;6.696;2023-04-01T20:24:20;7.30;99.90
65692;DHT22;52411;52.716;6.696;2023-04-01T20:26:59;7.30;99.90
65692;DHT22;52411;52.716;6.696;2023-04-01T20:29:56;7.30;99.90
65692;DHT22;52411;52.716;6.696;2023-04-01T20:37:48;7.20;99.90
65692;DHT22;52411;52.716;6.696;2023-04-01T20:43:30;7.30;99.90
65692;DHT22;52411;52.716;6.696;2023-04-01T20:46:20;7.20;99.90
65692;DHT22;52411;52.716;6.696;2023-04-01T20:49:05;7.20;99.90
65692;DHT22;52411;52.716;6.696;2023-04-01T20:51:46;7.20;99.90
65692;DHT22;52411;52.716;6.696;2023-04-01T20:55:02;7.20;99.90
65692;DHT22;52411;52.716;6.696;2023-04-01T20:58:02;7.20;99.90
65692;DHT22;52411;52.716;6.696;2023-04-01T21:03:37;7.20;99.90
65692;DHT22;52411;52.716;6.696;2023-04-01T21:11:35;7.10;99.90
65692;DHT22;52411;52.716;6.696;2023-04-01T21:19:33;7.00;99.90
65692;DHT22;52411;52.716;6.696;2023-04-01T21:28:11;6.90;99.90
65692;DHT22;52411;52.716;6.696;2023-04-01T21:30:56;6.90;99.90
65692;DHT22;52411;52.716;6.696;2023-04-01T21:33:41;6.90;99.90
65692;DHT22;52411;52.716;6.696;2023-04-01T21:50:45;6.80;99.90
65692;DHT22;52411;52.716;6.696;2023-04-01T21:53:55;6.70;99.90
65692;DHT22;52411;52.716;6.696;2023-04-01T21:56:40;6.70;99.90
65692;DHT22;52411;52.716;6.696;2023-04-01T22:02:15;6.70;99.90
65692;DHT22;52411;52.716;6.696;2023-04-01T22:04:55;6.70;99.90
65692;DHT22;52411;52.716;6.696;2023-04-01T22:10:25;6.70;99.90
65692;DHT22;52411;52.716;6.696;2023-04-01T22:13:15;6.70;99.90
65692;DHT22;52411;52.716;6.696;2023-04-01T22:16:22;6.70;99.90
65692;DHT22;52411;52.716;6.696;2023-04-01T22:19:12;6.70;99.90
65692;DHT22;52411;52.716;6.696;2023-04-01T22:22:13;6.60;99.90
65692;DHT22;52411;52.716;6.696;2023-04-01T22:25:29;6.60;99.90
65692;DHT22;52411;52.716;6.696;2023-04-01T22:27:50;6.60;99.90
65692;DHT22;52411;52.716;6.696;2023-04-01T22:33:28;6.50;99.90
65692;DHT22;52411;52.716;6.696;2023-04-01T22:36:02;6.50;99.90
65692;DHT22;52411;52.716;6.696;2023-04-01T22:44:00;6.50;99.90
65692;DHT22;52411;52.716;6.696;2023-04-01T22:47:04;6.50;99.90
65692;DHT22;52411;52.716;6.696;2023-04-01T22:49:56;6.40;99.90
65692;DHT22;52411;52.716;6.696;2023-04-01T22:54:56;6.40;99.90
65692;DHT22;52411;52.716;6.696;2023-04-01T23:00:10;6.40;99.90
65692;DHT22;52411;52.716;6.696;2023-04-01T23:03:00;6.40;99.90
65692;DHT22;52411;52.716;6.696;2023-04-01T23:05:27;6.30;99.90
65692;DHT22;52411;52.716;6.696;2023-04-01T23:11:02;6.30;99.90
65692;DHT22;52411;52.716;6.696;2023-04-01T23:13:34;6.30;99.90
65692;DHT22;52411;52.716;6.696;2023-04-01T23:16:03;6.30;99.90
65692;DHT22;52411;52.716;6.696;2023-04-01T23:21:16;6.30;99.90
65692;DHT22;52411;52.716;6.696;2023-04-01T23:29:17;6.20;99.90
65692;DHT22;52411;52.716;6.696;2023-04-01T23:32:04;6.20;99.90
65692;DHT22;52411;52.716;6.696;2023-04-01T23:34:34;6.20;99.90
65692;DHT22;52411;52.716;6.696;2023-04-01T23:37:13;6.20;99.90
65692;DHT22;52411;52.716;6.696;2023-04-01T23:39:56;6.20;99.90
65692;DHT22;52411;52.716;6.696;2023-04-01T23:42:30;6.10;99.90
65692;DHT22;52411;52.716;6.696;2023-04-01T23:45:13;6.00;99.90
65692;DHT22;52411;52.716;6.696;2023-04-01T23:47:43;6.00;99.90
65692;DHT22;52411;52.716;6.696;2023-04-01T23:50:14;6.00;99.90
65692;DHT22;52411;52.716;6.696;2023-04-01T23:52:51;6.00;99.90
65692;DHT22;52411;52.716;6.696;2023-04-01T23:55:32;5.90;99.90
